sensor_id;sensor_type;location;lat;lon;timestamp;P1;durP1;ratioP1;P2;durP2;ratioP2
15406;SDS011;7802;51.568;6.364;2022-07-23T00:01:37;4.45;;;3.97;;
15406;SDS011;7802;51.568;6.364;2022-07-23T00:04:05;6.30;;;3.58;;
15406;SDS011;7802;51.568;6.364;2022-07-23T00:06:34;4.63;;;4.03;;
15406;SDS011;7802;51.568;6.364;2022-07-23T00:09:04;6.28;;;4.50;;
15406;SDS011;7802;51.568;6.364;2022-07-23T00:11:32;5.38;;;4.20;;
15406;SDS011;7802;51.568;6.364;2022-07-23T00:14:00;8.48;;;3.95;;
15406;SDS011;7802;51.568;6.364;2022-07-23T00:16:28;4.40;;;4.00;;
15406;SDS011;7802;51.568;6.364;2022-07-23T00:18:57;4.78;;;4.20;;
15406;SDS011;7802;51.568;6.364;2022-07-23T00:21:28;8.65;;;4.00;;
15406;SDS011;7802;51.568;6.364;2022-07-23T00:23:56;5.38;;;4.50;;
15406;SDS011;7802;51.568;6.364;2022-07-23T00:26:26;5.28;;;4.35;;
15406;SDS011;7802;51.568;6.364;2022-07-23T00:28:55;6.20;;;4.60;;
15406;SDS011;7802;51.568;6.364;2022-07-23T00:31:23;5.28;;;4.55;;
15406;SDS011;7802;51.568;6.364;2022-07-23T00:33:52;5.20;;;4.70;;
15406;SDS011;7802;51.568;6.364;2022-07-23T00:36:23;4.93;;;4.53;;
15406;SDS011;7802;51.568;6.364;2022-07-23T00:38:52;8.15;;;4.43;;
15406;SDS011;7802;51.568;6.364;2022-07-23T00:41:20;7.20;;;4.50;;
15406;SDS011;7802;51.568;6.364;2022-07-23T00:43:49;7.07;;;5.22;;
15406;SDS011;7802;51.568;6.364;2022-07-23T00:46:18;7.20;;;4.30;;
15406;SDS011;7802;51.568;6.364;2022-07-23T00:48:47;5.05;;;4.15;;
15406;SDS011;7802;51.568;6.364;2022-07-23T00:51:16;5.07;;;4.57;;
15406;SDS011;7802;51.568;6.364;2022-07-23T00:53:45;7.78;;;4.32;;
15406;SDS011;7802;51.568;6.364;2022-07-23T00:56:13;5.72;;;4.50;;
15406;SDS011;7802;51.568;6.364;2022-07-23T00:58:42;4.65;;;4.00;;
15406;SDS011;7802;51.568;6.364;2022-07-23T01:01:13;5.28;;;4.32;;
15406;SDS011;7802;51.568;6.364;2022-07-23T01:03:41;5.70;;;4.13;;
15406;SDS011;7802;51.568;6.364;2022-07-23T01:06:09;5.13;;;4.63;;
15406;SDS011;7802;51.568;6.364;2022-07-23T01:08:38;5.40;;;4.43;;
15406;SDS011;7802;51.568;6.364;2022-07-23T01:11:07;8.45;;;5.18;;
15406;SDS011;7802;51.568;6.364;2022-07-23T01:13:36;5.90;;;4.75;;
15406;SDS011;7802;51.568;6.364;2022-07-23T01:16:08;5.50;;;5.00;;
15406;SDS011;7802;51.568;6.364;2022-07-23T01:18:38;5.30;;;4.80;;
15406;SDS011;7802;51.568;6.364;2022-07-23T01:21:07;6.05;;;4.70;;
15406;SDS011;7802;51.568;6.364;2022-07-23T01:23:41;6.35;;;5.13;;
15406;SDS011;7802;51.568;6.364;2022-07-23T01:26:09;5.65;;;5.07;;
15406;SDS011;7802;51.568;6.364;2022-07-23T01:28:37;5.60;;;5.10;;
15406;SDS011;7802;51.568;6.364;2022-07-23T01:31:06;8.65;;;5.72;;
15406;SDS011;7802;51.568;6.364;2022-07-23T01:33:35;5.75;;;4.75;;
15406;SDS011;7802;51.568;6.364;2022-07-23T01:36:03;7.38;;;5.43;;
15406;SDS011;7802;51.568;6.364;2022-07-23T01:38:32;7.28;;;5.60;;
15406;SDS011;7802;51.568;6.364;2022-07-23T01:41:02;6.40;;;5.28;;
15406;SDS011;7802;51.568;6.364;2022-07-23T01:43:32;6.53;;;5.45;;
15406;SDS011;7802;51.568;6.364;2022-07-23T01:46:01;8.80;;;5.60;;
15406;SDS011;7802;51.568;6.364;2022-07-23T01:48:35;5.95;;;5.05;;
15406;SDS011;7802;51.568;6.364;2022-07-23T01:51:23;6.22;;;5.60;;
15406;SDS011;7802;51.568;6.364;2022-07-23T01:53:57;6.00;;;5.35;;
15406;SDS011;7802;51.568;6.364;2022-07-23T01:56:27;6.43;;;5.82;;
15406;SDS011;7802;51.568;6.364;2022-07-23T01:58:55;6.63;;;5.78;;
15406;SDS011;7802;51.568;6.364;2022-07-23T02:01:24;7.25;;;6.40;;
15406;SDS011;7802;51.568;6.364;2022-07-23T02:03:52;7.63;;;5.88;;
15406;SDS011;7802;51.568;6.364;2022-07-23T02:06:21;7.22;;;5.82;;
15406;SDS011;7802;51.568;6.364;2022-07-23T02:08:49;7.00;;;6.38;;
15406;SDS011;7802;51.568;6.364;2022-07-23T02:11:17;6.60;;;6.00;;
15406;SDS011;7802;51.568;6.364;2022-07-23T02:13:47;6.05;;;5.53;;
15406;SDS011;7802;51.568;6.364;2022-07-23T02:16:15;7.35;;;6.13;;
15406;SDS011;7802;51.568;6.364;2022-07-23T02:18:43;7.63;;;5.43;;
15406;SDS011;7802;51.568;6.364;2022-07-23T02:21:13;6.40;;;5.63;;
15406;SDS011;7802;51.568;6.364;2022-07-23T02:23:41;6.32;;;5.72;;
15406;SDS011;7802;51.568;6.364;2022-07-23T02:26:09;6.87;;;5.90;;
15406;SDS011;7802;51.568;6.364;2022-07-23T02:28:48;6.23;;;5.73;;
15406;SDS011;7802;51.568;6.364;2022-07-23T02:31:16;6.03;;;5.50;;
15406;SDS011;7802;51.568;6.364;2022-07-23T02:33:44;6.70;;;6.00;;
15406;SDS011;7802;51.568;6.364;2022-07-23T02:36:13;7.70;;;5.97;;
15406;SDS011;7802;51.568;6.364;2022-07-23T02:38:42;6.80;;;6.10;;
15406;SDS011;7802;51.568;6.364;2022-07-23T02:41:10;6.40;;;5.60;;
15406;SDS011;7802;51.568;6.364;2022-07-23T02:43:39;7.30;;;5.80;;
15406;SDS011;7802;51.568;6.364;2022-07-23T02:46:09;6.60;;;6.00;;
15406;SDS011;7802;51.568;6.364;2022-07-23T02:48:38;6.87;;;6.23;;
15406;SDS011;7802;51.568;6.364;2022-07-23T02:51:06;5.43;;;4.93;;
15406;SDS011;7802;51.568;6.364;2022-07-23T02:53:42;6.13;;;5.53;;
15406;SDS011;7802;51.568;6.364;2022-07-23T02:56:11;6.30;;;5.60;;
15406;SDS011;7802;51.568;6.364;2022-07-23T02:58:41;6.80;;;5.57;;
15406;SDS011;7802;51.568;6.364;2022-07-23T03:01:10;6.07;;;5.57;;
15406;SDS011;7802;51.568;6.364;2022-07-23T03:03:39;6.73;;;6.07;;
15406;SDS011;7802;51.568;6.364;2022-07-23T03:06:07;6.87;;;6.13;;
15406;SDS011;7802;51.568;6.364;2022-07-23T03:08:37;7.77;;;6.37;;
15406;SDS011;7802;51.568;6.364;2022-07-23T03:11:06;6.50;;;5.97;;
15406;SDS011;7802;51.568;6.364;2022-07-23T03:13:38;6.83;;;6.10;;
15406;SDS011;7802;51.568;6.364;2022-07-23T03:16:06;6.77;;;6.07;;
15406;SDS011;7802;51.568;6.364;2022-07-23T03:18:37;6.30;;;5.70;;
15406;SDS011;7802;51.568;6.364;2022-07-23T03:21:07;7.20;;;5.67;;
15406;SDS011;7802;51.568;6.364;2022-07-23T03:23:36;6.33;;;5.83;;
15406;SDS011;7802;51.568;6.364;2022-07-23T03:26:05;8.07;;;6.50;;
15406;SDS011;7802;51.568;6.364;2022-07-23T03:28:33;6.50;;;5.87;;
15406;SDS011;7802;51.568;6.364;2022-07-23T03:31:01;6.87;;;6.17;;
15406;SDS011;7802;51.568;6.364;2022-07-23T03:33:29;6.50;;;6.00;;
15406;SDS011;7802;51.568;6.364;2022-07-23T03:35:59;6.73;;;6.13;;
15406;SDS011;7802;51.568;6.364;2022-07-23T03:38:32;7.30;;;6.60;;
15406;SDS011;7802;51.568;6.364;2022-07-23T03:41:00;6.17;;;5.67;;
15406;SDS011;7802;51.568;6.364;2022-07-23T03:43:31;7.37;;;6.60;;
15406;SDS011;7802;51.568;6.364;2022-07-23T03:46:00;6.83;;;6.00;;
15406;SDS011;7802;51.568;6.364;2022-07-23T03:48:29;7.47;;;6.23;;
15406;SDS011;7802;51.568;6.364;2022-07-23T03:50:59;7.17;;;6.53;;
15406;SDS011;7802;51.568;6.364;2022-07-23T03:53:28;7.43;;;6.73;;
15406;SDS011;7802;51.568;6.364;2022-07-23T03:55:56;7.00;;;6.40;;
15406;SDS011;7802;51.568;6.364;2022-07-23T03:58:25;7.67;;;6.57;;
15406;SDS011;7802;51.568;6.364;2022-07-23T04:00:53;7.20;;;6.50;;
15406;SDS011;7802;51.568;6.364;2022-07-23T04:03:22;7.20;;;6.50;;
15406;SDS011;7802;51.568;6.364;2022-07-23T04:05:50;6.77;;;6.13;;
15406;SDS011;7802;51.568;6.364;2022-07-23T04:08:21;6.77;;;6.17;;
15406;SDS011;7802;51.568;6.364;2022-07-23T04:10:51;6.30;;;5.70;;
15406;SDS011;7802;51.568;6.364;2022-07-23T04:13:20;7.27;;;6.57;;
15406;SDS011;7802;51.568;6.364;2022-07-23T04:15:49;6.47;;;5.83;;
15406;SDS011;7802;51.568;6.364;2022-07-23T04:18:18;6.50;;;5.83;;
15406;SDS011;7802;51.568;6.364;2022-07-23T04:20:55;6.63;;;5.83;;
15406;SDS011;7802;51.568;6.364;2022-07-23T04:23:26;7.23;;;6.23;;
15406;SDS011;7802;51.568;6.364;2022-07-23T04:25:55;7.10;;;6.33;;
15406;SDS011;7802;51.568;6.364;2022-07-23T04:28:24;6.43;;;5.33;;
15406;SDS011;7802;51.568;6.364;2022-07-23T04:30:52;7.70;;;6.33;;
15406;SDS011;7802;51.568;6.364;2022-07-23T04:33:23;6.57;;;5.83;;
15406;SDS011;7802;51.568;6.364;2022-07-23T04:35:54;6.90;;;6.30;;
15406;SDS011;7802;51.568;6.364;2022-07-23T04:38:22;6.27;;;5.77;;
15406;SDS011;7802;51.568;6.364;2022-07-23T04:40:56;6.70;;;6.00;;
15406;SDS011;7802;51.568;6.364;2022-07-23T04:43:25;6.57;;;5.97;;
15406;SDS011;7802;51.568;6.364;2022-07-23T04:45:53;6.77;;;6.07;;
15406;SDS011;7802;51.568;6.364;2022-07-23T04:48:22;5.80;;;5.30;;
15406;SDS011;7802;51.568;6.364;2022-07-23T04:50:58;6.80;;;6.13;;
15406;SDS011;7802;51.568;6.364;2022-07-23T04:53:28;7.13;;;6.53;;
15406;SDS011;7802;51.568;6.364;2022-07-23T04:56:01;6.70;;;5.87;;
15406;SDS011;7802;51.568;6.364;2022-07-23T04:58:30;6.80;;;6.18;;
15406;SDS011;7802;51.568;6.364;2022-07-23T05:00:59;7.77;;;6.40;;
15406;SDS011;7802;51.568;6.364;2022-07-23T05:03:29;7.73;;;7.03;;
15406;SDS011;7802;51.568;6.364;2022-07-23T05:05:58;6.47;;;5.97;;
15406;SDS011;7802;51.568;6.364;2022-07-23T05:08:27;7.87;;;6.20;;
15406;SDS011;7802;51.568;6.364;2022-07-23T05:10:57;7.53;;;6.90;;
15406;SDS011;7802;51.568;6.364;2022-07-23T05:13:29;10.00;;;6.80;;
15406;SDS011;7802;51.568;6.364;2022-07-23T05:15:57;7.20;;;6.50;;
15406;SDS011;7802;51.568;6.364;2022-07-23T05:18:26;6.95;;;6.25;;
15406;SDS011;7802;51.568;6.364;2022-07-23T05:20:55;7.97;;;7.18;;
15406;SDS011;7802;51.568;6.364;2022-07-23T05:23:23;8.18;;;7.10;;
15406;SDS011;7802;51.568;6.364;2022-07-23T05:25:52;8.07;;;7.28;;
15406;SDS011;7802;51.568;6.364;2022-07-23T05:28:20;10.35;;;6.65;;
15406;SDS011;7802;51.568;6.364;2022-07-23T05:30:52;8.50;;;7.65;;
15406;SDS011;7802;51.568;6.364;2022-07-23T05:33:22;8.63;;;7.20;;
15406;SDS011;7802;51.568;6.364;2022-07-23T05:35:51;9.48;;;8.07;;
15406;SDS011;7802;51.568;6.364;2022-07-23T05:38:31;7.72;;;6.93;;
15406;SDS011;7802;51.568;6.364;2022-07-23T05:41:01;8.50;;;7.70;;
15406;SDS011;7802;51.568;6.364;2022-07-23T05:43:31;8.30;;;7.57;;
15406;SDS011;7802;51.568;6.364;2022-07-23T05:46:06;8.38;;;7.47;;
15406;SDS011;7802;51.568;6.364;2022-07-23T05:48:38;7.80;;;7.10;;
15406;SDS011;7802;51.568;6.364;2022-07-23T05:51:12;8.60;;;7.80;;
15406;SDS011;7802;51.568;6.364;2022-07-23T05:53:40;8.25;;;7.43;;
15406;SDS011;7802;51.568;6.364;2022-07-23T05:56:13;8.35;;;7.65;;
15406;SDS011;7802;51.568;6.364;2022-07-23T05:58:42;9.90;;;7.22;;
15406;SDS011;7802;51.568;6.364;2022-07-23T06:01:15;8.55;;;7.65;;
15406;SDS011;7802;51.568;6.364;2022-07-23T06:03:49;8.07;;;7.32;;
15406;SDS011;7802;51.568;6.364;2022-07-23T06:06:18;9.05;;;7.15;;
15406;SDS011;7802;51.568;6.364;2022-07-23T06:08:46;8.75;;;7.53;;
15406;SDS011;7802;51.568;6.364;2022-07-23T06:11:15;8.13;;;7.35;;
15406;SDS011;7802;51.568;6.364;2022-07-23T06:13:43;8.40;;;7.55;;
15406;SDS011;7802;51.568;6.364;2022-07-23T06:16:12;7.53;;;6.70;;
15406;SDS011;7802;51.568;6.364;2022-07-23T06:18:41;9.90;;;6.97;;
15406;SDS011;7802;51.568;6.364;2022-07-23T06:21:10;7.95;;;7.15;;
15406;SDS011;7802;51.568;6.364;2022-07-23T06:23:58;8.48;;;7.68;;
15406;SDS011;7802;51.568;6.364;2022-07-23T06:26:26;8.40;;;7.57;;
15406;SDS011;7802;51.568;6.364;2022-07-23T06:28:54;8.68;;;7.03;;
15406;SDS011;7802;51.568;6.364;2022-07-23T06:31:23;7.60;;;6.95;;
15406;SDS011;7802;51.568;6.364;2022-07-23T06:33:53;7.47;;;6.78;;
15406;SDS011;7802;51.568;6.364;2022-07-23T06:36:22;6.30;;;5.68;;
15406;SDS011;7802;51.568;6.364;2022-07-23T06:38:50;8.18;;;5.93;;
15406;SDS011;7802;51.568;6.364;2022-07-23T06:41:20;5.35;;;4.85;;
15406;SDS011;7802;51.568;6.364;2022-07-23T06:43:48;5.60;;;5.03;;
15406;SDS011;7802;51.568;6.364;2022-07-23T06:46:20;5.93;;;4.70;;
15406;SDS011;7802;51.568;6.364;2022-07-23T06:48:49;4.32;;;4.03;;
15406;SDS011;7802;51.568;6.364;2022-07-23T06:51:19;4.93;;;3.90;;
15406;SDS011;7802;51.568;6.364;2022-07-23T06:53:47;4.00;;;3.70;;
15406;SDS011;7802;51.568;6.364;2022-07-23T06:56:16;6.35;;;3.88;;
15406;SDS011;7802;51.568;6.364;2022-07-23T06:58:44;5.72;;;3.58;;
15406;SDS011;7802;51.568;6.364;2022-07-23T07:01:12;3.72;;;3.10;;
15406;SDS011;7802;51.568;6.364;2022-07-23T07:03:41;2.97;;;2.67;;
15406;SDS011;7802;51.568;6.364;2022-07-23T07:06:10;5.03;;;2.65;;
15406;SDS011;7802;51.568;6.364;2022-07-23T07:08:39;3.70;;;2.60;;
15406;SDS011;7802;51.568;6.364;2022-07-23T07:11:09;3.30;;;2.90;;
15406;SDS011;7802;51.568;6.364;2022-07-23T07:13:38;3.40;;;2.65;;
15406;SDS011;7802;51.568;6.364;2022-07-23T07:16:06;3.28;;;2.97;;
15406;SDS011;7802;51.568;6.364;2022-07-23T07:18:35;3.80;;;2.83;;
15406;SDS011;7802;51.568;6.364;2022-07-23T07:21:04;3.00;;;2.80;;
15406;SDS011;7802;51.568;6.364;2022-07-23T07:23:32;3.72;;;2.53;;
15406;SDS011;7802;51.568;6.364;2022-07-23T07:26:01;3.00;;;2.80;;
15406;SDS011;7802;51.568;6.364;2022-07-23T07:28:30;4.40;;;2.67;;
15406;SDS011;7802;51.568;6.364;2022-07-23T07:30:58;3.42;;;2.80;;
15406;SDS011;7802;51.568;6.364;2022-07-23T07:33:26;3.22;;;2.90;;
15406;SDS011;7802;51.568;6.364;2022-07-23T07:35:55;3.17;;;2.88;;
15406;SDS011;7802;51.568;6.364;2022-07-23T07:38:23;3.85;;;2.78;;
15406;SDS011;7802;51.568;6.364;2022-07-23T07:40:52;2.92;;;2.60;;
15406;SDS011;7802;51.568;6.364;2022-07-23T07:43:22;2.55;;;1.92;;
15406;SDS011;7802;51.568;6.364;2022-07-23T07:45:50;2.60;;;2.40;;
15406;SDS011;7802;51.568;6.364;2022-07-23T07:48:19;3.25;;;2.65;;
15406;SDS011;7802;51.568;6.364;2022-07-23T07:50:47;3.13;;;2.22;;
15406;SDS011;7802;51.568;6.364;2022-07-23T07:53:15;1.67;;;1.58;;
15406;SDS011;7802;51.568;6.364;2022-07-23T07:55:43;2.95;;;2.20;;
15406;SDS011;7802;51.568;6.364;2022-07-23T07:58:17;2.90;;;1.73;;
15406;SDS011;7802;51.568;6.364;2022-07-23T08:00:47;2.58;;;2.00;;
15406;SDS011;7802;51.568;6.364;2022-07-23T08:03:15;4.47;;;2.20;;
15406;SDS011;7802;51.568;6.364;2022-07-23T08:05:44;4.80;;;2.97;;
15406;SDS011;7802;51.568;6.364;2022-07-23T08:08:12;2.90;;;2.28;;
15406;SDS011;7802;51.568;6.364;2022-07-23T08:10:42;3.72;;;2.58;;
15406;SDS011;7802;51.568;6.364;2022-07-23T08:13:12;3.60;;;2.60;;
15406;SDS011;7802;51.568;6.364;2022-07-23T08:15:42;3.60;;;3.17;;
15406;SDS011;7802;51.568;6.364;2022-07-23T08:18:13;4.25;;;3.10;;
15406;SDS011;7802;51.568;6.364;2022-07-23T08:20:41;5.22;;;3.50;;
15406;SDS011;7802;51.568;6.364;2022-07-23T08:23:10;3.95;;;3.25;;
15406;SDS011;7802;51.568;6.364;2022-07-23T08:25:39;4.47;;;3.50;;
15406;SDS011;7802;51.568;6.364;2022-07-23T08:28:09;3.58;;;3.15;;
15406;SDS011;7802;51.568;6.364;2022-07-23T08:30:39;4.07;;;3.50;;
15406;SDS011;7802;51.568;6.364;2022-07-23T08:33:09;4.30;;;3.38;;
15406;SDS011;7802;51.568;6.364;2022-07-23T08:36:00;5.68;;;3.35;;
15406;SDS011;7802;51.568;6.364;2022-07-23T08:38:30;3.75;;;3.22;;
15406;SDS011;7802;51.568;6.364;2022-07-23T08:40:59;7.35;;;3.63;;
15406;SDS011;7802;51.568;6.364;2022-07-23T08:43:29;4.28;;;3.38;;
15406;SDS011;7802;51.568;6.364;2022-07-23T08:45:59;4.32;;;3.33;;
15406;SDS011;7802;51.568;6.364;2022-07-23T08:48:29;4.88;;;3.55;;
15406;SDS011;7802;51.568;6.364;2022-07-23T08:50:59;5.30;;;3.58;;
15406;SDS011;7802;51.568;6.364;2022-07-23T08:53:30;5.38;;;3.30;;
15406;SDS011;7802;51.568;6.364;2022-07-23T08:56:00;3.53;;;2.78;;
15406;SDS011;7802;51.568;6.364;2022-07-23T08:58:30;5.78;;;3.20;;
15406;SDS011;7802;51.568;6.364;2022-07-23T09:00:58;5.30;;;3.17;;
15406;SDS011;7802;51.568;6.364;2022-07-23T09:03:28;3.80;;;2.58;;
15406;SDS011;7802;51.568;6.364;2022-07-23T09:05:58;3.15;;;2.50;;
15406;SDS011;7802;51.568;6.364;2022-07-23T09:08:35;2.60;;;2.15;;
15406;SDS011;7802;51.568;6.364;2022-07-23T09:11:05;3.13;;;2.60;;
15406;SDS011;7802;51.568;6.364;2022-07-23T09:13:35;2.83;;;2.40;;
15406;SDS011;7802;51.568;6.364;2022-07-23T09:16:06;2.95;;;2.65;;
15406;SDS011;7802;51.568;6.364;2022-07-23T09:18:41;3.72;;;2.47;;
15406;SDS011;7802;51.568;6.364;2022-07-23T09:21:15;4.57;;;2.50;;
15406;SDS011;7802;51.568;6.364;2022-07-23T09:24:02;2.20;;;1.88;;
15406;SDS011;7802;51.568;6.364;2022-07-23T09:26:34;3.53;;;2.05;;
15406;SDS011;7802;51.568;6.364;2022-07-23T09:29:05;3.70;;;2.50;;
15406;SDS011;7802;51.568;6.364;2022-07-23T09:31:45;3.38;;;2.30;;
15406;SDS011;7802;51.568;6.364;2022-07-23T09:34:17;6.20;;;2.08;;
15406;SDS011;7802;51.568;6.364;2022-07-23T09:36:50;2.13;;;2.03;;
15406;SDS011;7802;51.568;6.364;2022-07-23T09:39:28;4.80;;;2.40;;
15406;SDS011;7802;51.568;6.364;2022-07-23T09:41:57;2.30;;;2.10;;
15406;SDS011;7802;51.568;6.364;2022-07-23T09:44:25;2.58;;;2.38;;
15406;SDS011;7802;51.568;6.364;2022-07-23T09:46:57;2.38;;;2.03;;
15406;SDS011;7802;51.568;6.364;2022-07-23T09:49:28;4.13;;;2.53;;
15406;SDS011;7802;51.568;6.364;2022-07-23T09:51:57;2.33;;;2.03;;
15406;SDS011;7802;51.568;6.364;2022-07-23T09:54:30;4.30;;;2.53;;
15406;SDS011;7802;51.568;6.364;2022-07-23T09:57:02;3.33;;;2.22;;
15406;SDS011;7802;51.568;6.364;2022-07-23T09:59:34;3.25;;;2.40;;
15406;SDS011;7802;51.568;6.364;2022-07-23T10:02:04;4.53;;;2.65;;
15406;SDS011;7802;51.568;6.364;2022-07-23T10:04:43;3.10;;;2.72;;
15406;SDS011;7802;51.568;6.364;2022-07-23T10:07:21;3.70;;;2.67;;
15406;SDS011;7802;51.568;6.364;2022-07-23T10:10:12;3.22;;;2.70;;
15406;SDS011;7802;51.568;6.364;2022-07-23T10:13:02;3.17;;;2.45;;
15406;SDS011;7802;51.568;6.364;2022-07-23T10:15:47;5.80;;;2.70;;
15406;SDS011;7802;51.568;6.364;2022-07-23T10:18:16;3.75;;;2.50;;
15406;SDS011;7802;51.568;6.364;2022-07-23T10:20:45;4.93;;;2.22;;
15406;SDS011;7802;51.568;6.364;2022-07-23T10:23:16;3.58;;;2.70;;
15406;SDS011;7802;51.568;6.364;2022-07-23T10:26:03;3.42;;;2.63;;
15406;SDS011;7802;51.568;6.364;2022-07-23T10:28:56;2.80;;;2.50;;
15406;SDS011;7802;51.568;6.364;2022-07-23T10:31:41;3.05;;;2.47;;
15406;SDS011;7802;51.568;6.364;2022-07-23T10:34:30;2.53;;;2.33;;
15406;SDS011;7802;51.568;6.364;2022-07-23T10:37:16;3.38;;;2.42;;
15406;SDS011;7802;51.568;6.364;2022-07-23T10:42:39;2.47;;;2.25;;
15406;SDS011;7802;51.568;6.364;2022-07-23T10:45:24;4.25;;;2.65;;
15406;SDS011;7802;51.568;6.364;2022-07-23T10:47:55;3.35;;;2.13;;
15406;SDS011;7802;51.568;6.364;2022-07-23T10:50:24;4.82;;;2.92;;
15406;SDS011;7802;51.568;6.364;2022-07-23T10:53:10;2.95;;;2.65;;
15406;SDS011;7802;51.568;6.364;2022-07-23T10:55:41;2.55;;;2.35;;
15406;SDS011;7802;51.568;6.364;2022-07-23T10:58:20;3.13;;;2.70;;
15406;SDS011;7802;51.568;6.364;2022-07-23T11:00:51;4.10;;;2.95;;
15406;SDS011;7802;51.568;6.364;2022-07-23T11:03:30;3.65;;;2.97;;
15406;SDS011;7802;51.568;6.364;2022-07-23T11:06:05;2.22;;;2.03;;
15406;SDS011;7802;51.568;6.364;2022-07-23T11:08:34;2.88;;;2.45;;
15406;SDS011;7802;51.568;6.364;2022-07-23T11:11:09;3.25;;;2.33;;
15406;SDS011;7802;51.568;6.364;2022-07-23T11:13:47;3.25;;;2.08;;
15406;SDS011;7802;51.568;6.364;2022-07-23T11:16:16;2.28;;;1.80;;
15406;SDS011;7802;51.568;6.364;2022-07-23T11:21:50;2.30;;;2.10;;
15406;SDS011;7802;51.568;6.364;2022-07-23T11:24:22;3.05;;;2.00;;
15406;SDS011;7802;51.568;6.364;2022-07-23T11:26:55;2.97;;;2.20;;
15406;SDS011;7802;51.568;6.364;2022-07-23T11:29:40;2.15;;;1.95;;
15406;SDS011;7802;51.568;6.364;2022-07-23T11:32:30;2.72;;;2.40;;
15406;SDS011;7802;51.568;6.364;2022-07-23T11:35:01;2.15;;;2.05;;
15406;SDS011;7802;51.568;6.364;2022-07-23T11:37:34;2.25;;;2.05;;
15406;SDS011;7802;51.568;6.364;2022-07-23T11:40:06;2.45;;;2.10;;
15406;SDS011;7802;51.568;6.364;2022-07-23T11:42:37;2.15;;;2.00;;
15406;SDS011;7802;51.568;6.364;2022-07-23T11:45:08;2.75;;;2.40;;
15406;SDS011;7802;51.568;6.364;2022-07-23T11:47:37;2.28;;;2.08;;
15406;SDS011;7802;51.568;6.364;2022-07-23T11:50:05;2.38;;;2.17;;
15406;SDS011;7802;51.568;6.364;2022-07-23T11:52:34;2.90;;;2.40;;
15406;SDS011;7802;51.568;6.364;2022-07-23T11:55:04;2.22;;;2.03;;
15406;SDS011;7802;51.568;6.364;2022-07-23T11:57:34;3.00;;;2.00;;
15406;SDS011;7802;51.568;6.364;2022-07-23T12:00:06;3.45;;;2.08;;
15406;SDS011;7802;51.568;6.364;2022-07-23T12:02:38;2.42;;;2.20;;
15406;SDS011;7802;51.568;6.364;2022-07-23T12:05:07;2.10;;;1.90;;
15406;SDS011;7802;51.568;6.364;2022-07-23T12:07:39;2.22;;;2.03;;
15406;SDS011;7802;51.568;6.364;2022-07-23T12:10:10;3.25;;;1.75;;
15406;SDS011;7802;51.568;6.364;2022-07-23T12:12:42;2.58;;;2.38;;
15406;SDS011;7802;51.568;6.364;2022-07-23T12:15:14;2.28;;;2.10;;
15406;SDS011;7802;51.568;6.364;2022-07-23T12:17:44;2.00;;;1.90;;
15406;SDS011;7802;51.568;6.364;2022-07-23T12:20:17;3.92;;;2.53;;
15406;SDS011;7802;51.568;6.364;2022-07-23T12:22:48;3.20;;;2.00;;
15406;SDS011;7802;51.568;6.364;2022-07-23T12:25:19;2.38;;;2.22;;
15406;SDS011;7802;51.568;6.364;2022-07-23T12:27:57;2.65;;;2.40;;
15406;SDS011;7802;51.568;6.364;2022-07-23T12:30:30;2.30;;;2.10;;
15406;SDS011;7802;51.568;6.364;2022-07-23T12:33:00;2.13;;;1.92;;
15406;SDS011;7802;51.568;6.364;2022-07-23T12:35:31;2.75;;;2.30;;
15406;SDS011;7802;51.568;6.364;2022-07-23T12:38:03;3.30;;;2.15;;
15406;SDS011;7802;51.568;6.364;2022-07-23T12:40:33;3.22;;;1.95;;
15406;SDS011;7802;51.568;6.364;2022-07-23T12:43:06;2.40;;;1.98;;
15406;SDS011;7802;51.568;6.364;2022-07-23T12:45:52;4.25;;;2.13;;
15406;SDS011;7802;51.568;6.364;2022-07-23T12:48:23;2.47;;;2.10;;
15406;SDS011;7802;51.568;6.364;2022-07-23T12:50:53;2.30;;;2.10;;
15406;SDS011;7802;51.568;6.364;2022-07-23T12:53:25;2.58;;;2.35;;
15406;SDS011;7802;51.568;6.364;2022-07-23T12:55:59;3.75;;;2.50;;
15406;SDS011;7802;51.568;6.364;2022-07-23T12:58:43;2.88;;;2.10;;
15406;SDS011;7802;51.568;6.364;2022-07-23T13:04:04;2.40;;;2.20;;
15406;SDS011;7802;51.568;6.364;2022-07-23T13:06:40;2.53;;;2.22;;
15406;SDS011;7802;51.568;6.364;2022-07-23T13:09:11;2.95;;;2.45;;
15406;SDS011;7802;51.568;6.364;2022-07-23T13:11:42;2.13;;;1.90;;
15406;SDS011;7802;51.568;6.364;2022-07-23T13:14:13;2.20;;;2.03;;
15406;SDS011;7802;51.568;6.364;2022-07-23T13:16:44;2.38;;;2.22;;
15406;SDS011;7802;51.568;6.364;2022-07-23T13:19:14;3.20;;;2.33;;
15406;SDS011;7802;51.568;6.364;2022-07-23T13:21:45;2.67;;;2.25;;
15406;SDS011;7802;51.568;6.364;2022-07-23T13:24:13;2.38;;;2.00;;
15406;SDS011;7802;51.568;6.364;2022-07-23T13:26:41;2.75;;;2.05;;
15406;SDS011;7802;51.568;6.364;2022-07-23T13:29:13;2.22;;;2.10;;
15406;SDS011;7802;51.568;6.364;2022-07-23T13:31:44;3.03;;;2.45;;
15406;SDS011;7802;51.568;6.364;2022-07-23T13:34:13;2.78;;;2.40;;
15406;SDS011;7802;51.568;6.364;2022-07-23T13:36:41;2.42;;;2.20;;
15406;SDS011;7802;51.568;6.364;2022-07-23T13:39:10;3.78;;;2.67;;
15406;SDS011;7802;51.568;6.364;2022-07-23T13:41:39;2.60;;;2.40;;
15406;SDS011;7802;51.568;6.364;2022-07-23T13:44:16;3.80;;;2.50;;
15406;SDS011;7802;51.568;6.364;2022-07-23T13:46:49;2.67;;;2.22;;
15406;SDS011;7802;51.568;6.364;2022-07-23T13:49:18;2.65;;;2.45;;
15406;SDS011;7802;51.568;6.364;2022-07-23T13:51:47;3.42;;;2.20;;
15406;SDS011;7802;51.568;6.364;2022-07-23T13:54:16;2.40;;;2.20;;
15406;SDS011;7802;51.568;6.364;2022-07-23T13:56:45;2.15;;;2.00;;
15406;SDS011;7802;51.568;6.364;2022-07-23T13:59:13;2.47;;;2.28;;
15406;SDS011;7802;51.568;6.364;2022-07-23T14:01:42;3.55;;;2.25;;
15406;SDS011;7802;51.568;6.364;2022-07-23T14:04:33;2.63;;;2.42;;
15406;SDS011;7802;51.568;6.364;2022-07-23T14:07:01;2.80;;;2.03;;
15406;SDS011;7802;51.568;6.364;2022-07-23T14:09:29;3.60;;;2.28;;
15406;SDS011;7802;51.568;6.364;2022-07-23T14:12:00;2.42;;;2.10;;
15406;SDS011;7802;51.568;6.364;2022-07-23T14:14:28;3.58;;;2.20;;
15406;SDS011;7802;51.568;6.364;2022-07-23T14:16:56;3.42;;;2.17;;
15406;SDS011;7802;51.568;6.364;2022-07-23T14:19:27;3.80;;;2.33;;
15406;SDS011;7802;51.568;6.364;2022-07-23T14:21:58;2.28;;;2.10;;
15406;SDS011;7802;51.568;6.364;2022-07-23T14:24:26;2.65;;;2.45;;
15406;SDS011;7802;51.568;6.364;2022-07-23T14:26:59;2.67;;;2.47;;
15406;SDS011;7802;51.568;6.364;2022-07-23T14:29:29;3.00;;;2.72;;
15406;SDS011;7802;51.568;6.364;2022-07-23T14:31:58;2.70;;;2.50;;
15406;SDS011;7802;51.568;6.364;2022-07-23T14:34:27;3.83;;;2.22;;
15406;SDS011;7802;51.568;6.364;2022-07-23T14:36:58;2.53;;;2.33;;
15406;SDS011;7802;51.568;6.364;2022-07-23T14:39:26;3.60;;;2.40;;
15406;SDS011;7802;51.568;6.364;2022-07-23T14:41:56;3.88;;;2.47;;
15406;SDS011;7802;51.568;6.364;2022-07-23T14:44:24;3.42;;;2.50;;
15406;SDS011;7802;51.568;6.364;2022-07-23T14:46:52;3.03;;;2.40;;
15406;SDS011;7802;51.568;6.364;2022-07-23T14:49:20;4.80;;;4.40;;
15406;SDS011;7802;51.568;6.364;2022-07-23T14:51:52;4.28;;;2.70;;
15406;SDS011;7802;51.568;6.364;2022-07-23T14:54:23;3.42;;;2.67;;
15406;SDS011;7802;51.568;6.364;2022-07-23T14:56:53;3.00;;;2.47;;
15406;SDS011;7802;51.568;6.364;2022-07-23T14:59:22;2.65;;;2.30;;
15406;SDS011;7802;51.568;6.364;2022-07-23T15:01:51;2.50;;;2.30;;
15406;SDS011;7802;51.568;6.364;2022-07-23T15:04:23;4.80;;;2.47;;
15406;SDS011;7802;51.568;6.364;2022-07-23T15:07:02;3.28;;;2.53;;
15406;SDS011;7802;51.568;6.364;2022-07-23T15:09:32;2.58;;;2.30;;
15406;SDS011;7802;51.568;6.364;2022-07-23T15:12:02;2.65;;;2.45;;
15406;SDS011;7802;51.568;6.364;2022-07-23T15:14:33;2.63;;;2.42;;
15406;SDS011;7802;51.568;6.364;2022-07-23T15:17:01;3.88;;;2.75;;
15406;SDS011;7802;51.568;6.364;2022-07-23T15:19:30;2.72;;;2.38;;
15406;SDS011;7802;51.568;6.364;2022-07-23T15:21:58;2.42;;;2.30;;
15406;SDS011;7802;51.568;6.364;2022-07-23T15:24:28;2.97;;;2.67;;
15406;SDS011;7802;51.568;6.364;2022-07-23T15:26:58;2.72;;;2.53;;
15406;SDS011;7802;51.568;6.364;2022-07-23T15:29:27;2.92;;;2.33;;
15406;SDS011;7802;51.568;6.364;2022-07-23T15:31:55;2.72;;;2.50;;